Terminal Aerodrome Forecast
Issued by NWS

Current Version | Previous Version | Graphics & Text | Print | Product List | Glossary On
Versions: 1 2 3 4 5 6 7 8 9 10 11 12 13 14 15 16 17 18 19 20 21 22
888
FTUS41 KRLX 192322
TAFCKB
TAF
KCKB 192322Z 2000/2024 29004KT P6SM OVC028
     FM200700 00000KT P6SM BKN050
     FM201500 22004KT P6SM SCT250
     FM202100 21006KT P6SM -SHRA BKN050=

USA.gov is the U.S. government's official web portal to all federal, state and local government web resources and services.